createdAt,value
2023-03-15T00:01:16.100Z,7.13
2023-03-15T00:03:43.819Z,9.18
2023-03-15T00:06:11.013Z,8.20
2023-03-15T00:08:38.052Z,7.82
2023-03-15T00:11:04.636Z,11.52
2023-03-15T00:13:31.743Z,6.75
2023-03-15T00:16:00.768Z,8.70
2023-03-15T00:18:27.864Z,12.18
2023-03-15T00:20:54.971Z,7.28
2023-03-15T00:23:21.833Z,10.18
2023-03-15T00:25:49.553Z,9.85
2023-03-15T00:28:16.181Z,9.23
2023-03-15T00:30:43.579Z,11.38
2023-03-15T00:33:13.845Z,7.15
2023-03-15T00:35:42.451Z,8.02
2023-03-15T00:38:09.513Z,7.18
2023-03-15T00:40:37.349Z,8.18
2023-03-15T00:43:04.096Z,12.30
2023-03-15T00:45:30.723Z,10.10
2023-03-15T00:47:57.130Z,10.20
2023-03-15T00:50:25.561Z,8.82
2023-03-15T00:52:51.897Z,10.98
2023-03-15T00:55:19.863Z,10.10
2023-03-15T00:57:46.930Z,8.68
2023-03-15T01:00:16.931Z,6.68
2023-03-15T01:02:43.654Z,7.95
2023-03-15T01:05:11.515Z,7.57
2023-03-15T01:07:37.995Z,6.90
2023-03-15T01:10:06.863Z,12.88
2023-03-15T01:12:34.054Z,5.25
2023-03-15T01:15:02.803Z,14.02
2023-03-15T01:17:29.240Z,6.28
2023-03-15T01:19:56.082Z,3.25
2023-03-15T01:22:22.491Z,4.53
2023-03-15T01:24:48.862Z,7.20
2023-03-15T01:27:15.403Z,3.60
2023-03-15T01:29:41.902Z,4.13
2023-03-15T01:32:08.768Z,3.97
2023-03-15T01:34:36.320Z,6.50
2023-03-15T01:37:05.515Z,6.68
2023-03-15T01:39:31.963Z,2.42
2023-03-15T01:41:58.613Z,4.97
2023-03-15T01:44:49.388Z,3.80
2023-03-15T01:47:15.948Z,6.00
2023-03-15T01:49:44.629Z,6.38
2023-03-15T01:52:16.098Z,5.15
2023-03-15T01:54:54.181Z,5.05
2023-03-15T01:57:29.528Z,4.07
2023-03-15T02:00:01.905Z,4.82
2023-03-15T02:02:29.391Z,7.07
2023-03-15T02:05:11.260Z,3.58
2023-03-15T02:07:50.145Z,2.58
2023-03-15T02:10:20.610Z,5.43
2023-03-15T02:12:51.757Z,3.63
2023-03-15T02:15:18.614Z,3.30
2023-03-15T02:17:47.397Z,3.47
2023-03-15T02:20:45.052Z,3.13
2023-03-15T02:23:17.640Z,6.28
2023-03-15T02:25:54.304Z,2.70
2023-03-15T02:28:21.592Z,3.53
2023-03-15T02:30:48.819Z,2.67
2023-03-15T02:33:22.754Z,2.55
2023-03-15T02:35:49.219Z,2.65
2023-03-15T02:38:15.599Z,2.55
2023-03-15T02:40:41.937Z,2.80
2023-03-15T02:43:20.731Z,2.92
2023-03-15T02:45:47.872Z,2.70
2023-03-15T02:48:14.835Z,4.05
2023-03-15T02:50:41.280Z,3.47
2023-03-15T02:53:08.041Z,3.63
2023-03-15T02:55:34.647Z,3.20
2023-03-15T02:58:01.862Z,3.05
2023-03-15T03:00:28.844Z,2.47
2023-03-15T03:02:55.675Z,2.83
2023-03-15T03:05:22.335Z,3.85
2023-03-15T03:07:50.133Z,3.80
2023-03-15T03:10:19.512Z,3.90
2023-03-15T03:12:46.674Z,4.22
2023-03-15T03:15:13.600Z,3.70
2023-03-15T03:17:40.040Z,3.42
2023-03-15T03:20:08.319Z,3.50
2023-03-15T03:22:35.170Z,3.33
2023-03-15T03:25:02.524Z,3.88
2023-03-15T03:27:29.554Z,5.50
2023-03-15T03:29:56.413Z,3.10
2023-03-15T03:32:22.911Z,5.85
2023-03-15T03:34:49.345Z,4.20
2023-03-15T03:37:19.797Z,4.57
2023-03-15T03:39:46.334Z,5.20
2023-03-15T03:42:14.363Z,4.00
2023-03-15T03:44:41.551Z,5.30
2023-03-15T03:47:08.443Z,6.28
2023-03-15T03:49:34.940Z,3.90
2023-03-15T03:52:01.703Z,5.20
2023-03-15T03:54:28.625Z,4.30
2023-03-15T03:56:55.055Z,5.90
2023-03-15T03:59:21.484Z,7.15
2023-03-15T04:01:48.359Z,6.15
2023-03-15T04:04:14.811Z,6.90
2023-03-15T04:06:45.742Z,7.82
2023-03-15T04:09:14.014Z,4.82
2023-03-15T04:11:42.650Z,5.18
2023-03-15T04:14:10.849Z,8.20
2023-03-15T04:16:37.518Z,5.13
2023-03-15T04:19:04.365Z,6.97
2023-03-15T04:21:33.968Z,5.45
2023-03-15T04:24:03.466Z,8.20
2023-03-15T04:26:29.998Z,6.70
2023-03-15T04:28:58.267Z,5.55
2023-03-15T04:31:27.130Z,7.00
2023-03-15T04:33:54.605Z,6.03
2023-03-15T04:36:23.814Z,7.70
2023-03-15T04:38:50.670Z,5.35
2023-03-15T04:41:18.473Z,5.05
2023-03-15T04:43:44.856Z,4.95
2023-03-15T04:46:11.527Z,5.82
2023-03-15T04:48:37.944Z,5.72
2023-03-15T04:51:04.491Z,5.50
2023-03-15T04:53:30.876Z,6.57
2023-03-15T04:55:57.844Z,8.27
2023-03-15T04:58:24.295Z,6.70
2023-03-15T05:00:52.499Z,4.63
2023-03-15T05:03:18.906Z,8.43
2023-03-15T05:05:45.840Z,6.60
2023-03-15T05:08:12.287Z,4.93
2023-03-15T05:10:38.934Z,5.20
2023-03-15T05:13:05.261Z,6.43
2023-03-15T05:15:31.748Z,7.80
2023-03-15T05:17:58.435Z,5.45
2023-03-15T05:20:25.919Z,8.63
2023-03-15T05:22:55.176Z,9.20
2023-03-15T05:25:22.070Z,8.93
2023-03-15T05:27:48.684Z,11.25
2023-03-15T05:30:16.226Z,5.97
2023-03-15T05:32:44.527Z,7.03
2023-03-15T05:35:12.356Z,7.95
2023-03-15T05:37:38.668Z,10.23
2023-03-15T05:40:08.133Z,6.35
2023-03-15T05:42:34.846Z,8.43
2023-03-15T05:45:01.233Z,5.10
2023-03-15T05:47:27.625Z,6.35
2023-03-15T05:49:54.054Z,6.57
2023-03-15T05:52:20.562Z,6.13
2023-03-15T05:54:47.027Z,9.32
2023-03-15T05:57:13.479Z,5.72
2023-03-15T05:59:39.988Z,8.63
2023-03-15T06:02:06.730Z,6.90
2023-03-15T06:04:33.345Z,5.68
2023-03-15T06:06:59.818Z,12.23
2023-03-15T06:09:26.310Z,10.15
2023-03-15T06:11:53.597Z,10.90
2023-03-15T06:14:20.022Z,6.30
2023-03-15T06:16:46.430Z,10.75
2023-03-15T06:19:13.033Z,6.57
2023-03-15T06:21:39.436Z,7.88
2023-03-15T06:24:06.544Z,8.75
2023-03-15T06:26:32.930Z,7.70
2023-03-15T06:28:59.277Z,7.13
2023-03-15T06:31:25.727Z,7.70
2023-03-15T06:33:52.077Z,8.93
2023-03-15T06:36:18.589Z,7.82
2023-03-15T06:38:45.076Z,10.18
2023-03-15T06:41:12.403Z,8.70
2023-03-15T06:43:38.944Z,7.20
2023-03-15T06:46:05.339Z,8.13
2023-03-15T06:48:31.946Z,10.02
2023-03-15T06:50:58.394Z,9.05
2023-03-15T06:53:24.928Z,12.10
2023-03-15T06:55:52.212Z,10.52
2023-03-15T06:58:18.632Z,10.48
2023-03-15T07:00:45.033Z,9.07
2023-03-15T07:03:11.593Z,8.75
2023-03-15T07:05:37.918Z,9.25
2023-03-15T07:08:04.675Z,11.63
2023-03-15T07:10:31.200Z,10.20
2023-03-15T07:12:57.811Z,10.82
2023-03-15T07:15:24.355Z,10.00
2023-03-15T07:17:50.803Z,12.07
2023-03-15T07:20:17.327Z,10.40
2023-03-15T07:22:45.541Z,12.30
2023-03-15T07:25:11.953Z,9.85
2023-03-15T07:27:38.329Z,8.43
2023-03-15T07:30:05.239Z,7.90
2023-03-15T07:32:32.702Z,11.50
2023-03-15T07:35:00.623Z,8.10
2023-03-15T07:37:29.177Z,10.32
2023-03-15T07:39:55.719Z,10.10
2023-03-15T07:42:22.101Z,9.32
2023-03-15T07:44:48.556Z,9.98
2023-03-15T07:49:41.543Z,7.05
2023-03-15T07:52:08.451Z,8.52
2023-03-15T07:54:34.904Z,10.10
2023-03-15T07:57:01.329Z,11.93
2023-03-15T07:59:27.895Z,13.38
2023-03-15T08:01:54.555Z,14.13
2023-03-15T08:04:21.245Z,8.65
2023-03-15T08:06:47.764Z,10.10
2023-03-15T08:09:14.111Z,8.95
2023-03-15T08:11:41.668Z,10.45
2023-03-15T08:14:09.144Z,11.68
2023-03-15T08:16:35.582Z,10.63
2023-03-15T08:19:02.005Z,8.63
2023-03-15T08:21:28.353Z,11.23
2023-03-15T08:23:54.680Z,8.05
2023-03-15T08:26:21.086Z,9.68
2023-03-15T08:28:47.451Z,11.48
2023-03-15T08:31:14.073Z,13.70
2023-03-15T08:33:41.001Z,9.20
2023-03-15T08:36:07.525Z,7.22
2023-03-15T08:38:34.499Z,8.13
2023-03-15T08:41:00.852Z,8.73
2023-03-15T08:43:27.213Z,10.65
2023-03-15T08:46:00.967Z,11.07
2023-03-15T08:48:28.269Z,9.68
2023-03-15T08:50:54.664Z,9.25
2023-03-15T08:53:21.008Z,10.98
2023-03-15T08:55:48.763Z,9.55
2023-03-15T08:58:15.286Z,10.63
2023-03-15T09:00:41.632Z,8.32
2023-03-15T09:03:08.685Z,6.40
2023-03-15T09:05:36.415Z,12.38
2023-03-15T09:08:02.879Z,7.32
2023-03-15T09:10:29.332Z,8.25
2023-03-15T09:12:55.926Z,10.90
2023-03-15T09:15:22.470Z,8.48
2023-03-15T09:17:51.895Z,8.35
2023-03-15T09:20:21.885Z,10.45
2023-03-15T09:22:58.461Z,8.23
2023-03-15T09:25:25.854Z,5.78
2023-03-15T09:27:52.657Z,10.18
2023-03-15T09:30:19.917Z,13.43
2023-03-15T09:32:46.439Z,7.10
2023-03-15T09:35:18.937Z,7.53
2023-03-15T09:37:45.717Z,7.70
2023-03-15T09:40:18.682Z,7.35
2023-03-15T09:42:50.829Z,6.82
2023-03-15T09:45:43.082Z,9.50
2023-03-15T09:48:18.117Z,8.88
2023-03-15T09:50:50.798Z,7.10
2023-03-15T09:53:32.081Z,7.80
2023-03-15T09:55:58.499Z,7.63
2023-03-15T09:58:32.632Z,8.75
2023-03-15T10:01:04.282Z,6.72
2023-03-15T10:03:42.667Z,5.20
2023-03-15T10:06:26.092Z,9.07
2023-03-15T10:08:57.599Z,5.35
2023-03-15T10:11:40.430Z,5.35
2023-03-15T10:14:47.960Z,11.35
2023-03-15T10:17:21.124Z,6.25
2023-03-15T10:19:49.657Z,5.63
2023-03-15T10:22:26.019Z,6.85
2023-03-15T10:25:07.578Z,5.68
2023-03-15T10:27:41.530Z,5.88
2023-03-15T10:30:26.212Z,8.43
2023-03-15T10:32:59.075Z,9.55
2023-03-15T10:35:25.816Z,8.60
2023-03-15T10:37:52.924Z,7.70
2023-03-15T10:40:39.320Z,7.90
2023-03-15T10:45:39.554Z,5.13
2023-03-15T10:48:07.542Z,6.07
2023-03-15T10:50:34.241Z,11.95
2023-03-15T10:53:08.702Z,4.57
2023-03-15T10:55:44.296Z,8.75
2023-03-15T10:58:39.391Z,6.82
2023-03-15T11:01:09.494Z,9.20
2023-03-15T11:03:37.515Z,6.55
2023-03-15T11:06:19.586Z,6.85
2023-03-15T11:08:46.046Z,7.22
2023-03-15T11:11:12.445Z,6.75
2023-03-15T11:13:41.754Z,12.77
2023-03-15T11:16:14.388Z,9.43
2023-03-15T11:19:01.505Z,6.78
2023-03-15T11:21:33.673Z,5.57
2023-03-15T11:24:03.103Z,4.20
2023-03-15T11:26:34.715Z,5.25
2023-03-15T11:29:06.464Z,5.32
2023-03-15T11:31:33.974Z,4.18
2023-03-15T11:34:06.172Z,5.85
2023-03-15T11:36:36.084Z,8.48
2023-03-15T11:39:09.057Z,4.13
2023-03-15T11:41:47.546Z,7.55
2023-03-15T11:44:25.610Z,6.05
2023-03-15T11:47:04.885Z,4.90
2023-03-15T11:49:37.538Z,4.80
2023-03-15T11:52:05.012Z,5.07
2023-03-15T11:54:32.362Z,5.70
2023-03-15T11:57:07.607Z,4.55
2023-03-15T11:59:38.124Z,4.47
2023-03-15T12:02:10.972Z,2.60
2023-03-15T12:04:51.357Z,4.50
2023-03-15T12:07:18.479Z,4.85
2023-03-15T12:09:47.982Z,4.47
2023-03-15T12:12:26.325Z,4.10
2023-03-15T12:15:05.343Z,4.22
2023-03-15T12:17:37.389Z,6.15
2023-03-15T12:20:12.680Z,5.88
2023-03-15T12:22:51.600Z,2.28
2023-03-15T12:25:31.163Z,3.78
2023-03-15T12:27:59.514Z,4.22
2023-03-15T12:30:33.266Z,4.82
2023-03-15T12:33:02.282Z,3.08
2023-03-15T12:35:38.295Z,5.45
2023-03-15T12:38:12.578Z,3.60
2023-03-15T12:40:55.118Z,4.47
2023-03-15T12:43:43.672Z,3.25
2023-03-15T12:46:44.039Z,4.15
2023-03-15T12:49:14.603Z,5.43
2023-03-15T12:51:54.768Z,5.18
2023-03-15T12:54:23.694Z,3.35
2023-03-15T12:56:57.336Z,4.30
2023-03-15T12:59:42.233Z,3.58
2023-03-15T13:02:39.558Z,2.85
2023-03-15T13:05:28.850Z,4.88
2023-03-15T13:08:19.748Z,2.42
2023-03-15T13:11:31.312Z,3.05
2023-03-15T13:14:27.138Z,2.63
2023-03-15T13:17:36.095Z,2.72
2023-03-15T13:20:35.706Z,3.72
2023-03-15T13:23:30.763Z,3.00
2023-03-15T13:26:15.684Z,4.43
2023-03-15T13:28:49.306Z,5.13
2023-03-15T13:31:24.769Z,3.10
2023-03-15T13:34:00.125Z,2.72
2023-03-15T13:36:46.244Z,4.32
2023-03-15T13:41:58.461Z,4.78
2023-03-15T13:44:26.045Z,3.45
2023-03-15T13:46:53.557Z,7.18
2023-03-15T13:49:20.651Z,4.22
2023-03-15T13:51:49.337Z,4.88
2023-03-15T13:54:25.730Z,3.15
2023-03-15T13:57:15.568Z,9.18
2023-03-15T13:59:49.836Z,6.65
2023-03-15T14:02:19.632Z,3.42
2023-03-15T14:04:57.084Z,4.47
2023-03-15T14:07:46.581Z,5.00
2023-03-15T14:10:25.312Z,2.10
2023-03-15T14:12:52.669Z,6.20
2023-03-15T14:15:18.935Z,3.28
2023-03-15T14:18:01.001Z,3.15
2023-03-15T14:20:39.862Z,3.63
2023-03-15T14:23:09.753Z,3.22
2023-03-15T14:25:37.034Z,4.65
2023-03-15T14:28:04.829Z,2.83
2023-03-15T14:30:36.078Z,1.75
2023-03-15T14:33:05.053Z,3.33
2023-03-15T14:35:37.674Z,4.05
2023-03-15T14:38:26.954Z,2.70
2023-03-15T14:40:54.073Z,8.25
2023-03-15T14:43:20.710Z,2.15
2023-03-15T14:45:48.985Z,3.90
2023-03-15T14:48:28.932Z,1.50
2023-03-15T14:50:56.237Z,2.25
2023-03-15T14:53:26.027Z,3.72
2023-03-15T14:55:52.580Z,1.17
2023-03-15T14:58:20.948Z,3.90
2023-03-15T15:00:53.792Z,1.73
2023-03-15T15:03:28.783Z,1.95
2023-03-15T15:05:55.428Z,1.95
2023-03-15T15:08:25.267Z,1.98
2023-03-15T15:10:55.335Z,4.00
2023-03-15T15:13:29.668Z,2.63
2023-03-15T15:15:57.156Z,2.40
2023-03-15T15:18:25.852Z,1.70
2023-03-15T15:20:55.367Z,3.50
2023-03-15T15:23:31.182Z,3.60
2023-03-15T15:26:01.160Z,4.75
2023-03-15T15:28:37.552Z,3.40
2023-03-15T15:31:07.549Z,3.63
2023-03-15T15:33:34.473Z,4.18
2023-03-15T15:36:01.289Z,6.20
2023-03-15T15:38:33.184Z,4.75
2023-03-15T15:40:59.721Z,3.05
2023-03-15T15:43:26.048Z,2.88
2023-03-15T15:45:52.474Z,3.22
2023-03-15T15:48:18.837Z,3.17
2023-03-15T15:50:45.182Z,5.88
2023-03-15T15:53:16.893Z,2.20
2023-03-15T15:55:44.316Z,4.00
2023-03-15T15:58:12.506Z,2.17
2023-03-15T16:00:39.025Z,5.55
2023-03-15T16:03:14.761Z,4.35
2023-03-15T16:05:41.522Z,3.58
2023-03-15T16:08:20.433Z,4.93
2023-03-15T16:10:46.824Z,3.38
2023-03-15T16:13:13.237Z,6.53
2023-03-15T16:15:39.598Z,3.80
2023-03-15T16:18:12.540Z,2.50
2023-03-15T16:20:40.649Z,3.35
2023-03-15T16:23:10.601Z,4.72
2023-03-15T16:25:37.045Z,1.75
2023-03-15T16:28:05.276Z,2.53
2023-03-15T16:30:33.427Z,2.47
2023-03-15T16:33:00.206Z,2.10
2023-03-15T16:35:35.064Z,3.40
2023-03-15T16:38:04.855Z,2.85
2023-03-15T16:40:35.241Z,2.42
2023-03-15T16:43:01.622Z,1.95
2023-03-15T16:45:28.061Z,3.17
2023-03-15T16:47:56.445Z,3.00
2023-03-15T16:50:23.552Z,1.92
2023-03-15T16:52:54.872Z,2.15
2023-03-15T16:55:26.725Z,3.70
2023-03-15T16:57:53.293Z,4.18
2023-03-15T17:00:20.602Z,2.78
2023-03-15T17:02:49.590Z,5.22
2023-03-15T17:05:18.973Z,2.05
2023-03-15T17:07:50.790Z,3.13
2023-03-15T17:10:25.893Z,4.68
2023-03-15T17:12:54.091Z,2.70
2023-03-15T17:15:24.073Z,5.70
2023-03-15T17:17:52.201Z,4.90
2023-03-15T17:20:22.120Z,2.92
2023-03-15T17:22:49.772Z,4.18
2023-03-15T17:25:16.949Z,2.92
2023-03-15T17:27:44.538Z,4.15
2023-03-15T17:30:37.504Z,4.13
2023-03-15T17:33:05.304Z,3.13
2023-03-15T17:35:35.664Z,3.90
2023-03-15T17:38:04.120Z,2.17
2023-03-15T17:40:33.532Z,3.85
2023-03-15T17:43:02.055Z,2.45
2023-03-15T17:45:31.437Z,3.38
2023-03-15T17:47:58.008Z,4.90
2023-03-15T17:50:27.480Z,5.25
2023-03-15T17:53:02.388Z,3.03
2023-03-15T17:55:30.759Z,9.63
2023-03-15T17:58:11.584Z,9.73
2023-03-15T18:00:38.149Z,9.65
2023-03-15T18:03:04.744Z,9.95
2023-03-15T18:05:31.332Z,13.68
2023-03-15T18:07:59.953Z,4.45
2023-03-15T18:10:34.342Z,6.03
2023-03-15T18:13:01.312Z,9.05
2023-03-15T18:15:28.249Z,6.50
2023-03-15T18:17:54.621Z,6.28
2023-03-15T18:20:24.205Z,10.77
2023-03-15T18:22:51.469Z,9.52
2023-03-15T18:25:22.052Z,5.40
2023-03-15T18:27:49.611Z,5.95
2023-03-15T18:30:22.186Z,3.92
2023-03-15T18:32:49.479Z,6.63
2023-03-15T18:35:19.629Z,6.78
2023-03-15T18:37:46.592Z,13.35
2023-03-15T18:40:15.505Z,17.30
2023-03-15T18:42:42.992Z,13.90
2023-03-15T18:45:25.517Z,12.75
2023-03-15T18:47:51.914Z,11.10
2023-03-15T18:50:19.459Z,11.48
2023-03-15T18:52:46.577Z,8.43
2023-03-15T18:55:14.694Z,11.07
2023-03-15T18:57:41.568Z,11.70
2023-03-15T19:00:13.319Z,15.52
2023-03-15T19:02:45.605Z,10.32
2023-03-15T19:05:13.808Z,12.75
2023-03-15T19:07:40.542Z,12.45
2023-03-15T19:10:15.938Z,14.55
2023-03-15T19:12:44.714Z,10.48
2023-03-15T19:15:14.978Z,12.25
2023-03-15T19:17:41.960Z,14.48
2023-03-15T19:20:11.907Z,11.85
2023-03-15T19:22:39.089Z,12.63
2023-03-15T19:25:06.728Z,13.10
2023-03-15T19:27:33.128Z,18.23
2023-03-15T19:29:59.485Z,18.75
2023-03-15T19:32:32.335Z,16.85
2023-03-15T19:34:58.694Z,16.77
2023-03-15T19:37:25.077Z,14.77
2023-03-15T19:39:52.030Z,11.77
2023-03-15T19:42:18.395Z,11.50
2023-03-15T19:44:47.273Z,15.73
2023-03-15T19:47:13.729Z,13.00
2023-03-15T19:49:41.098Z,19.88
2023-03-15T19:52:07.507Z,12.75
2023-03-15T19:54:34.091Z,13.77
2023-03-15T19:57:01.146Z,19.73
2023-03-15T19:59:27.910Z,15.43
2023-03-15T20:01:54.734Z,17.08
2023-03-15T20:04:21.807Z,19.55
2023-03-15T20:06:48.316Z,16.02
2023-03-15T20:09:15.175Z,12.20
2023-03-15T20:11:42.053Z,13.65
2023-03-15T20:14:08.731Z,15.05
2023-03-15T20:16:35.609Z,20.05
2023-03-15T20:19:02.318Z,14.02
2023-03-15T20:21:29.698Z,12.73
2023-03-15T20:23:56.377Z,10.80
2023-03-15T20:26:23.844Z,12.18
2023-03-15T20:28:50.310Z,11.70
2023-03-15T20:31:18.535Z,15.50
2023-03-15T20:33:48.982Z,11.68
2023-03-15T20:36:16.385Z,10.82
2023-03-15T20:38:44.360Z,11.63
2023-03-15T20:41:13.924Z,12.43
2023-03-15T20:43:41.468Z,16.65
2023-03-15T20:46:09.664Z,14.20
2023-03-15T20:48:36.751Z,14.95
2023-03-15T20:51:04.091Z,12.07
2023-03-15T20:53:35.735Z,13.63
2023-03-15T20:56:03.405Z,14.98
2023-03-15T20:58:29.820Z,14.43
2023-03-15T21:01:10.274Z,17.27
2023-03-15T21:03:37.007Z,13.10
2023-03-15T21:06:05.737Z,13.55
2023-03-15T21:08:33.236Z,12.77
2023-03-15T21:10:59.914Z,10.70
2023-03-15T21:13:26.632Z,17.33
2023-03-15T21:15:54.037Z,14.40
2023-03-15T21:18:23.016Z,13.02
2023-03-15T21:20:58.040Z,11.30
2023-03-15T21:23:27.750Z,10.48
2023-03-15T21:25:55.612Z,11.43
2023-03-15T21:28:23.209Z,11.85
2023-03-15T21:30:53.462Z,10.57
2023-03-15T21:33:21.679Z,13.25
2023-03-15T21:35:48.157Z,13.98
2023-03-15T21:38:15.424Z,12.05
2023-03-15T21:40:46.062Z,10.82
2023-03-15T21:43:13.819Z,12.80
2023-03-15T21:45:41.994Z,12.23
2023-03-15T21:48:08.732Z,14.05
2023-03-15T21:50:36.405Z,11.63
2023-03-15T21:53:03.629Z,11.48
2023-03-15T21:55:33.429Z,9.60
2023-03-15T21:58:04.587Z,13.77
2023-03-15T22:00:32.342Z,13.25
2023-03-15T22:02:58.715Z,9.70
2023-03-15T22:05:25.084Z,11.55
2023-03-15T22:07:51.416Z,9.48
2023-03-15T22:10:19.624Z,9.90
2023-03-15T22:12:45.971Z,14.55
2023-03-15T22:15:14.739Z,21.05
2023-03-15T22:17:41.135Z,10.60
2023-03-15T22:20:10.020Z,9.77
2023-03-15T22:22:36.604Z,11.68
2023-03-15T22:25:03.386Z,7.70
2023-03-15T22:27:29.724Z,12.75
2023-03-15T22:29:56.185Z,7.07
2023-03-15T22:32:22.710Z,7.85
2023-03-15T22:34:49.059Z,8.05
2023-03-15T22:37:15.421Z,7.43
2023-03-15T22:39:42.842Z,8.43
2023-03-15T22:42:09.409Z,8.30
2023-03-15T22:44:35.761Z,7.20
2023-03-15T22:47:02.095Z,8.05
2023-03-15T22:49:28.530Z,5.85
2023-03-15T22:51:54.872Z,8.00
2023-03-15T22:54:21.397Z,8.80
2023-03-15T22:56:47.736Z,7.95
2023-03-15T22:59:14.061Z,9.10
2023-03-15T23:01:40.941Z,8.10
2023-03-15T23:04:07.405Z,9.55
2023-03-15T23:06:33.762Z,11.82
2023-03-15T23:09:00.107Z,13.57
2023-03-15T23:11:26.436Z,8.70
2023-03-15T23:13:53.137Z,14.55
2023-03-15T23:16:19.563Z,8.93
2023-03-15T23:18:45.956Z,9.50
2023-03-15T23:21:14.537Z,7.10
2023-03-15T23:23:42.960Z,10.13
2023-03-15T23:26:09.741Z,9.20
2023-03-15T23:28:36.303Z,6.32
2023-03-15T23:31:05.420Z,8.88
2023-03-15T23:33:35.666Z,7.93
2023-03-15T23:36:04.014Z,9.95
2023-03-15T23:38:30.435Z,10.63
2023-03-15T23:40:58.964Z,10.52
2023-03-15T23:43:26.049Z,9.50
2023-03-15T23:45:56.947Z,10.18
2023-03-15T23:48:23.686Z,12.57
2023-03-15T23:50:58.284Z,10.43
2023-03-15T23:53:25.466Z,9.68
2023-03-15T23:55:52.560Z,9.68
2023-03-15T23:58:19.724Z,10.90
